createdAt,value
2023-04-07T00:03:17.971Z,100412.16
2023-04-07T00:08:11.220Z,100409.88
2023-04-07T00:13:04.473Z,100405.83
2023-04-07T00:17:57.415Z,100403.17
2023-04-07T00:22:50.664Z,100399.63
2023-04-07T00:27:43.474Z,100397.52
2023-04-07T00:32:36.626Z,100393.33
2023-04-07T00:37:29.711Z,100391.04
2023-04-07T00:42:25.461Z,100380.15
2023-04-07T00:47:18.305Z,100384.19
2023-04-07T00:52:12.570Z,100387.25
2023-04-07T00:57:05.557Z,100381.99
2023-04-07T01:07:47.500Z,100384.27
2023-04-07T01:12:49.114Z,100383.35
2023-04-07T01:17:54.544Z,100379.00
2023-04-07T01:22:54.590Z,100379.95
2023-04-07T01:28:04.227Z,100374.90
2023-04-07T01:32:59.523Z,100372.23
2023-04-07T01:37:53.747Z,100368.71
2023-04-07T01:42:48.813Z,100367.95
2023-04-07T01:47:45.123Z,100369.08
2023-04-07T01:52:39.103Z,100371.23
2023-04-07T01:57:32.280Z,100364.05
2023-04-07T02:02:30.712Z,100367.73
2023-04-07T02:07:41.439Z,100365.57
2023-04-07T02:12:36.606Z,100359.48
2023-04-07T02:17:39.331Z,100360.27
2023-04-07T02:22:34.309Z,100356.04
2023-04-07T02:27:27.133Z,100359.23
2023-04-07T02:32:20.076Z,100359.68
2023-04-07T02:37:12.970Z,100359.08
2023-04-07T02:42:05.953Z,100355.38
2023-04-07T02:46:58.760Z,100357.69
2023-04-07T02:51:51.557Z,100359.65
2023-04-07T02:56:44.354Z,100359.58
2023-04-07T03:01:37.266Z,100361.05
2023-04-07T03:06:30.215Z,100360.93
2023-04-07T03:11:31.298Z,100363.40
2023-04-07T03:16:25.746Z,100362.28
2023-04-07T03:21:25.993Z,100365.79
2023-04-07T03:26:18.910Z,100364.46
2023-04-07T03:31:11.837Z,100365.20
2023-04-07T03:36:04.922Z,100365.10
2023-04-07T03:40:58.475Z,100366.52
2023-04-07T03:45:51.951Z,100365.23
2023-04-07T03:50:47.720Z,100361.69
2023-04-07T03:55:43.760Z,100359.38
2023-04-07T04:00:44.063Z,100358.73
2023-04-07T04:05:37.454Z,100356.38
2023-04-07T04:10:30.482Z,100357.86
2023-04-07T04:15:24.030Z,100362.58
2023-04-07T04:20:17.174Z,100363.54
2023-04-07T04:25:13.452Z,100368.63
2023-04-07T04:30:09.544Z,100370.94
2023-04-07T04:35:14.810Z,100373.98
2023-04-07T04:40:16.055Z,100375.60
2023-04-07T04:45:10.385Z,100376.88
2023-04-07T04:50:04.654Z,100379.61
2023-04-07T04:54:59.412Z,100377.54
2023-04-07T04:59:53.011Z,100380.51
2023-04-07T05:04:46.373Z,100380.02
2023-04-07T05:09:51.343Z,100377.09
2023-04-07T05:14:45.089Z,100380.09
2023-04-07T05:19:37.959Z,100380.90
2023-04-07T05:24:36.931Z,100380.71
2023-04-07T05:29:30.734Z,100378.30
2023-04-07T05:34:24.160Z,100379.84
2023-04-07T05:39:19.958Z,100382.38
2023-04-07T05:44:13.694Z,100382.36
2023-04-07T05:54:06.499Z,100389.10
2023-04-07T05:59:00.698Z,100384.86
2023-04-07T06:03:53.976Z,100381.00
2023-04-07T06:08:52.024Z,100376.88
2023-04-07T06:13:44.942Z,100375.70
2023-04-07T06:18:38.009Z,100374.20
2023-04-07T06:23:32.567Z,100377.53
2023-04-07T06:28:25.579Z,100373.46
2023-04-07T06:33:18.860Z,100375.48
2023-04-07T06:38:12.369Z,100381.10
2023-04-07T06:43:06.368Z,100383.27
2023-04-07T06:48:15.706Z,100376.84
2023-04-07T06:53:08.505Z,100377.27
2023-04-07T06:58:02.946Z,100371.06
2023-04-07T07:02:56.132Z,100374.02
2023-04-07T07:07:49.062Z,100373.22
2023-04-07T07:12:41.828Z,100373.64
2023-04-07T07:17:34.608Z,100375.88
2023-04-07T07:22:27.444Z,100378.21
2023-04-07T07:27:20.309Z,100381.86
2023-04-07T07:32:13.158Z,100385.91
2023-04-07T07:37:06.137Z,100383.96
2023-04-07T07:41:58.989Z,100381.43
2023-04-07T07:46:52.264Z,100380.64
2023-04-07T07:51:46.275Z,100379.45
2023-04-07T07:56:39.089Z,100380.55
2023-04-07T08:01:32.403Z,100385.80
2023-04-07T08:06:25.486Z,100392.60
2023-04-07T08:11:19.167Z,100387.45
2023-04-07T08:16:12.713Z,100388.79
2023-04-07T08:21:06.850Z,100392.15
2023-04-07T08:25:59.839Z,100391.11
2023-04-07T08:30:52.747Z,100394.27
2023-04-07T08:35:45.530Z,100392.02
2023-04-07T08:40:38.746Z,100391.33
2023-04-07T08:45:34.710Z,100392.03
2023-04-07T08:50:28.859Z,100391.91
2023-04-07T08:55:22.004Z,100389.63
2023-04-07T09:00:16.699Z,100392.09
2023-04-07T09:05:10.310Z,100397.16
2023-04-07T09:10:04.094Z,100398.52
2023-04-07T09:14:57.328Z,100396.02
2023-04-07T09:19:50.664Z,100391.10
2023-04-07T09:24:43.730Z,100389.78
2023-04-07T09:29:36.662Z,100385.59
2023-04-07T09:34:34.587Z,100386.93
2023-04-07T09:39:28.310Z,100384.17
2023-04-07T09:44:22.829Z,100386.11
2023-04-07T09:49:15.701Z,100388.88
2023-04-07T09:54:08.606Z,100392.38
2023-04-07T09:59:03.013Z,100387.69
2023-04-07T10:03:56.649Z,100388.09
2023-04-07T10:08:49.815Z,100388.61
2023-04-07T10:13:43.570Z,100392.53
2023-04-07T10:18:38.540Z,100396.13
2023-04-07T10:23:58.162Z,100397.91
2023-04-07T10:28:55.033Z,100398.34
2023-04-07T10:33:51.468Z,100394.77
2023-04-07T10:39:11.187Z,100397.96
2023-04-07T10:44:05.283Z,100399.89
2023-04-07T10:49:11.766Z,100401.15
2023-04-07T10:54:23.781Z,100406.26
2023-04-07T10:59:17.324Z,100404.81
2023-04-07T11:04:10.317Z,100409.84
2023-04-07T11:09:03.404Z,100414.80
2023-04-07T11:13:56.316Z,100418.55
2023-04-07T11:18:49.289Z,100422.88
2023-04-07T11:23:44.582Z,100423.02
2023-04-07T11:28:46.444Z,100427.17
2023-04-07T11:33:42.238Z,100432.73
2023-04-07T11:38:39.575Z,100433.30
2023-04-07T11:43:32.451Z,100436.52
2023-04-07T11:48:31.345Z,100437.02
2023-04-07T11:53:32.639Z,100439.02
2023-04-07T11:58:51.663Z,100439.23
2023-04-07T12:04:04.892Z,100432.90
2023-04-07T12:08:58.082Z,100444.38
2023-04-07T12:13:51.047Z,100444.05
2023-04-07T12:18:43.883Z,100453.21
2023-04-07T12:23:37.350Z,100459.08
2023-04-07T12:28:31.630Z,100465.67
2023-04-07T12:33:24.734Z,100459.59
2023-04-07T12:38:17.618Z,100465.69
2023-04-07T12:43:10.990Z,100470.73
2023-04-07T12:48:04.439Z,100478.32
2023-04-07T12:52:59.482Z,100479.48
2023-04-07T12:57:52.872Z,100481.10
2023-04-07T13:02:46.357Z,100488.85
2023-04-07T13:07:39.436Z,100493.11
2023-04-07T13:12:32.308Z,100499.63
2023-04-07T13:17:25.293Z,100503.50
2023-04-07T13:22:21.625Z,100512.70
2023-04-07T13:27:15.076Z,100508.30
2023-04-07T13:32:13.165Z,100508.40
2023-04-07T13:37:07.196Z,100510.33
2023-04-07T13:42:01.266Z,100512.42
2023-04-07T13:46:56.148Z,100521.39
2023-04-07T13:51:49.500Z,100524.70
2023-04-07T13:56:42.426Z,100525.57
2023-04-07T14:01:39.123Z,100533.41
2023-04-07T14:06:32.276Z,100547.35
2023-04-07T14:11:25.160Z,100560.75
2023-04-07T14:16:18.713Z,100562.29
2023-04-07T14:21:11.649Z,100559.52
2023-04-07T14:26:05.217Z,100562.78
2023-04-07T14:30:58.114Z,100561.02
2023-04-07T14:35:51.610Z,100572.23
2023-04-07T14:40:45.393Z,100574.72
2023-04-07T14:45:39.194Z,100575.45
2023-04-07T14:50:34.670Z,100573.89
2023-04-07T14:55:27.652Z,100576.00
2023-04-07T15:00:21.007Z,100579.25
2023-04-07T15:05:13.905Z,100581.91
2023-04-07T15:10:07.523Z,100582.05
2023-04-07T15:15:00.647Z,100585.98
2023-04-07T15:19:53.467Z,100587.06
2023-04-07T15:24:46.255Z,100598.61
2023-04-07T15:29:42.493Z,100606.79
2023-04-07T15:34:35.394Z,100609.63
2023-04-07T15:39:28.241Z,100612.83
2023-04-07T15:44:21.188Z,100612.37
2023-04-07T15:49:14.004Z,100618.33
2023-04-07T15:54:06.861Z,100619.36
2023-04-07T15:58:59.660Z,100626.92
2023-04-07T16:03:52.776Z,100625.56
2023-04-07T16:08:45.788Z,100634.77
2023-04-07T16:13:38.559Z,100642.34
2023-04-07T16:18:31.409Z,100645.13
2023-04-07T16:23:24.436Z,100654.43
2023-04-07T16:28:17.641Z,100664.48
2023-04-07T16:33:10.644Z,100676.60
2023-04-07T16:38:06.381Z,100679.69
2023-04-07T16:42:59.648Z,100693.17
2023-04-07T16:47:52.548Z,100702.70
2023-04-07T16:52:46.922Z,100708.42
2023-04-07T16:57:39.771Z,100716.11
2023-04-07T17:02:33.440Z,100722.29
2023-04-07T17:07:26.495Z,100728.84
2023-04-07T17:12:19.314Z,100739.41
2023-04-07T17:17:12.182Z,100748.73
2023-04-07T17:22:05.000Z,100754.82
2023-04-07T17:26:57.900Z,100758.15
2023-04-07T17:31:50.840Z,100762.17
2023-04-07T17:36:43.647Z,100770.48
2023-04-07T17:41:38.465Z,100782.25
2023-04-07T17:46:32.108Z,100790.88
2023-04-07T17:51:26.881Z,100793.50
2023-04-07T17:56:20.439Z,100804.83
2023-04-07T18:01:13.770Z,100807.15
2023-04-07T18:06:08.569Z,100815.16
2023-04-07T18:11:01.501Z,100824.91
2023-04-07T18:15:55.209Z,100841.59
2023-04-07T18:20:48.338Z,100850.48
2023-04-07T18:25:41.150Z,100859.33
2023-04-07T18:30:34.637Z,100863.89
2023-04-07T18:35:28.660Z,100870.99
2023-04-07T18:40:21.954Z,100877.25
2023-04-07T18:45:14.788Z,100888.98
2023-04-07T18:50:08.430Z,100890.80
2023-04-07T18:55:01.249Z,100901.84
2023-04-07T18:59:54.087Z,100907.70
2023-04-07T19:04:46.881Z,100911.77
2023-04-07T19:09:40.057Z,100921.60
2023-04-07T19:14:32.861Z,100923.15
2023-04-07T19:19:26.133Z,100929.45
2023-04-07T19:24:18.964Z,100934.29
2023-04-07T19:29:12.662Z,100938.30
2023-04-07T19:34:05.475Z,100941.02
2023-04-07T19:38:58.337Z,100942.80
2023-04-07T19:43:51.682Z,100947.42
2023-04-07T19:48:44.548Z,100954.60
2023-04-07T19:53:37.641Z,100962.41
2023-04-07T19:58:30.458Z,100972.02
2023-04-07T20:03:24.442Z,100980.27
2023-04-07T20:08:17.428Z,100988.73
2023-04-07T20:13:10.602Z,100996.40
2023-04-07T20:18:03.721Z,101005.83
2023-04-07T20:22:56.616Z,101015.05
2023-04-07T20:27:50.538Z,101017.33
2023-04-07T20:32:43.615Z,101021.20
2023-04-07T20:37:36.709Z,101027.77
2023-04-07T20:42:29.500Z,101029.92
2023-04-07T20:47:22.388Z,101032.09
2023-04-07T20:52:15.275Z,101035.42
2023-04-07T20:57:08.079Z,101033.19
2023-04-07T21:02:01.054Z,101041.71
2023-04-07T21:06:53.972Z,101042.36
2023-04-07T21:11:46.874Z,101043.52
2023-04-07T21:16:39.667Z,101047.22
2023-04-07T21:21:32.727Z,101047.39
2023-04-07T21:26:26.649Z,101051.60
2023-04-07T21:31:23.634Z,101056.52
2023-04-07T21:36:16.574Z,101061.36
2023-04-07T21:41:09.653Z,101065.06
2023-04-07T21:46:02.711Z,101068.93
2023-04-07T21:50:55.696Z,101073.16
2023-04-07T21:55:48.539Z,101078.64
2023-04-07T22:00:42.026Z,101086.16
2023-04-07T22:05:39.507Z,101087.17
2023-04-07T22:10:33.014Z,101081.88
2023-04-07T22:15:26.822Z,101089.03
2023-04-07T22:20:19.680Z,101091.30
2023-04-07T22:25:12.499Z,101088.80
2023-04-07T22:30:08.694Z,101091.06
2023-04-07T22:35:01.515Z,101090.77
2023-04-07T22:39:54.520Z,101088.48
2023-04-07T22:44:48.205Z,101095.80
2023-04-07T22:49:41.061Z,101096.52
2023-04-07T22:54:34.769Z,101095.65
2023-04-07T22:59:27.717Z,101093.77
2023-04-07T23:04:22.645Z,101098.12
2023-04-07T23:09:15.798Z,101097.31
2023-04-07T23:14:08.854Z,101099.15
2023-04-07T23:19:02.336Z,101102.02
2023-04-07T23:23:55.412Z,101104.64
2023-04-07T23:28:48.797Z,101103.35
2023-04-07T23:33:41.780Z,101101.73
2023-04-07T23:38:36.377Z,101095.45
2023-04-07T23:43:29.167Z,101100.31
2023-04-07T23:48:21.961Z,101099.46
2023-04-07T23:53:14.773Z,101102.34
2023-04-07T23:58:07.569Z,101102.08
